sensor_id;sensor_type;location;lat;lon;timestamp;pressure;altitude;pressure_sealevel;temperature
53667;BMP280;39568;51.026;5.468;2022-10-16T00:01:41;100255.91;;;13.74
53667;BMP280;39568;51.026;5.468;2022-10-16T00:04:09;100243.41;;;13.69
53667;BMP280;39568;51.026;5.468;2022-10-16T00:06:37;100240.00;;;13.69
53667;BMP280;39568;51.026;5.468;2022-10-16T00:09:04;100236.59;;;13.68
53667;BMP280;39568;51.026;5.468;2022-10-16T00:11:33;100243.91;;;13.68
53667;BMP280;39568;51.026;5.468;2022-10-16T00:14:04;100243.50;;;13.64
53667;BMP280;39568;51.026;5.468;2022-10-16T00:16:31;100239.19;;;13.61
53667;BMP280;39568;51.026;5.468;2022-10-16T00:18:58;100243.41;;;13.56
53667;BMP280;39568;51.026;5.468;2022-10-16T00:21:27;100236.50;;;13.48
53667;BMP280;39568;51.026;5.468;2022-10-16T00:23:57;100239.00;;;13.46
53667;BMP280;39568;51.026;5.468;2022-10-16T00:26:28;100230.38;;;13.39
53667;BMP280;39568;51.026;5.468;2022-10-16T00:28:57;100239.31;;;13.42
53667;BMP280;39568;51.026;5.468;2022-10-16T00:31:28;100239.81;;;13.40
53667;BMP280;39568;51.026;5.468;2022-10-16T00:33:55;100239.22;;;13.34
53667;BMP280;39568;51.026;5.468;2022-10-16T00:36:23;100248.88;;;13.37
53667;BMP280;39568;51.026;5.468;2022-10-16T00:38:51;100265.94;;;13.34
53667;BMP280;39568;51.026;5.468;2022-10-16T00:41:20;100259.34;;;13.22
53667;BMP280;39568;51.026;5.468;2022-10-16T00:43:49;100262.22;;;13.24
53667;BMP280;39568;51.026;5.468;2022-10-16T00:46:22;100265.78;;;13.27
53667;BMP280;39568;51.026;5.468;2022-10-16T00:48:52;100270.47;;;13.26
53667;BMP280;39568;51.026;5.468;2022-10-16T00:51:21;100268.91;;;13.18
53667;BMP280;39568;51.026;5.468;2022-10-16T00:53:51;100270.13;;;13.17
53667;BMP280;39568;51.026;5.468;2022-10-16T00:56:18;100261.69;;;13.13
53667;BMP280;39568;51.026;5.468;2022-10-16T00:58:50;100260.97;;;13.12
53667;BMP280;39568;51.026;5.468;2022-10-16T01:01:17;100260.97;;;13.12
53667;BMP280;39568;51.026;5.468;2022-10-16T01:03:43;100255.63;;;13.12
53667;BMP280;39568;51.026;5.468;2022-10-16T01:06:22;100259.03;;;13.13
53667;BMP280;39568;51.026;5.468;2022-10-16T01:09:09;100272.69;;;13.09
53667;BMP280;39568;51.026;5.468;2022-10-16T01:11:44;100273.59;;;13.12
53667;BMP280;39568;51.026;5.468;2022-10-16T01:14:15;100272.78;;;13.17
53667;BMP280;39568;51.026;5.468;2022-10-16T01:16:50;100275.53;;;13.11
53667;BMP280;39568;51.026;5.468;2022-10-16T01:19:36;100273.16;;;13.08
53667;BMP280;39568;51.026;5.468;2022-10-16T01:22:08;100267.34;;;13.09
53667;BMP280;39568;51.026;5.468;2022-10-16T01:24:39;100259.41;;;13.04
53667;BMP280;39568;51.026;5.468;2022-10-16T01:27:25;100258.19;;;13.05
53667;BMP280;39568;51.026;5.468;2022-10-16T01:29:53;100264.06;;;13.03
53667;BMP280;39568;51.026;5.468;2022-10-16T01:32:28;100267.94;;;13.02
53667;BMP280;39568;51.026;5.468;2022-10-16T01:35:00;100274.72;;;13.03
53667;BMP280;39568;51.026;5.468;2022-10-16T01:37:31;100272.75;;;13.04
53667;BMP280;39568;51.026;5.468;2022-10-16T01:39:59;100277.91;;;13.02
53667;BMP280;39568;51.026;5.468;2022-10-16T01:42:34;100286.22;;;12.98
53667;BMP280;39568;51.026;5.468;2022-10-16T01:45:05;100282.44;;;13.07
53667;BMP280;39568;51.026;5.468;2022-10-16T01:47:38;100274.31;;;12.99
53667;BMP280;39568;51.026;5.468;2022-10-16T01:50:07;100276.03;;;12.97
53667;BMP280;39568;51.026;5.468;2022-10-16T01:52:37;100274.91;;;12.92
53667;BMP280;39568;51.026;5.468;2022-10-16T01:55:06;100280.53;;;12.89
53667;BMP280;39568;51.026;5.468;2022-10-16T01:57:36;100281.25;;;12.89
53667;BMP280;39568;51.026;5.468;2022-10-16T02:00:11;100278.59;;;12.89
53667;BMP280;39568;51.026;5.468;2022-10-16T02:02:40;100275.00;;;12.87
53667;BMP280;39568;51.026;5.468;2022-10-16T02:05:14;100276.63;;;12.90
53667;BMP280;39568;51.026;5.468;2022-10-16T02:07:41;100275.19;;;12.89
53667;BMP280;39568;51.026;5.468;2022-10-16T02:10:08;100272.84;;;12.85
53667;BMP280;39568;51.026;5.468;2022-10-16T02:12:39;100276.97;;;12.86
53667;BMP280;39568;51.026;5.468;2022-10-16T02:15:07;100273.25;;;12.89
53667;BMP280;39568;51.026;5.468;2022-10-16T02:17:36;100273.75;;;12.88
53667;BMP280;39568;51.026;5.468;2022-10-16T02:20:06;100271.19;;;12.82
53667;BMP280;39568;51.026;5.468;2022-10-16T02:22:36;100261.66;;;12.87
53667;BMP280;39568;51.026;5.468;2022-10-16T02:25:10;100280.84;;;12.85
53667;BMP280;39568;51.026;5.468;2022-10-16T02:27:47;100290.47;;;12.88
53667;BMP280;39568;51.026;5.468;2022-10-16T02:30:19;100295.81;;;12.88
53667;BMP280;39568;51.026;5.468;2022-10-16T02:32:48;100297.72;;;12.93
53667;BMP280;39568;51.026;5.468;2022-10-16T02:35:17;100288.66;;;12.96
53667;BMP280;39568;51.026;5.468;2022-10-16T02:37:45;100290.22;;;12.92
53667;BMP280;39568;51.026;5.468;2022-10-16T02:40:12;100285.16;;;12.88
53667;BMP280;39568;51.026;5.468;2022-10-16T02:42:40;100292.38;;;12.93
53667;BMP280;39568;51.026;5.468;2022-10-16T02:45:10;100275.19;;;12.89
53667;BMP280;39568;51.026;5.468;2022-10-16T02:47:37;100281.50;;;12.91
53667;BMP280;39568;51.026;5.468;2022-10-16T02:50:04;100275.75;;;12.87
53667;BMP280;39568;51.026;5.468;2022-10-16T02:52:31;100275.50;;;12.85
53667;BMP280;39568;51.026;5.468;2022-10-16T02:54:57;100277.13;;;12.88
53667;BMP280;39568;51.026;5.468;2022-10-16T02:57:24;100274.06;;;12.84
53667;BMP280;39568;51.026;5.468;2022-10-16T02:59:51;100270.88;;;12.86
53667;BMP280;39568;51.026;5.468;2022-10-16T03:02:20;100277.38;;;12.90
53667;BMP280;39568;51.026;5.468;2022-10-16T03:04:48;100279.53;;;12.92
53667;BMP280;39568;51.026;5.468;2022-10-16T03:07:14;100277.38;;;12.90
53667;BMP280;39568;51.026;5.468;2022-10-16T03:09:42;100275.63;;;12.93
53667;BMP280;39568;51.026;5.468;2022-10-16T03:12:08;100270.16;;;12.85
53667;BMP280;39568;51.026;5.468;2022-10-16T03:14:37;100291.31;;;12.83
53667;BMP280;39568;51.026;5.468;2022-10-16T03:17:05;100290.81;;;12.85
53667;BMP280;39568;51.026;5.468;2022-10-16T03:19:35;100296.00;;;12.77
53667;BMP280;39568;51.026;5.468;2022-10-16T03:22:06;100297.47;;;12.78
53667;BMP280;39568;51.026;5.468;2022-10-16T03:24:33;100300.94;;;12.73
53667;BMP280;39568;51.026;5.468;2022-10-16T03:27:04;100300.22;;;12.72
53667;BMP280;39568;51.026;5.468;2022-10-16T03:29:31;100294.88;;;12.72
53667;BMP280;39568;51.026;5.468;2022-10-16T03:31:58;100303.72;;;12.67
53667;BMP280;39568;51.026;5.468;2022-10-16T03:34:25;100314.88;;;12.66
53667;BMP280;39568;51.026;5.468;2022-10-16T03:36:53;100316.09;;;12.65
53667;BMP280;39568;51.026;5.468;2022-10-16T03:39:20;100323.09;;;12.68
53667;BMP280;39568;51.026;5.468;2022-10-16T03:41:46;100320.63;;;12.70
53667;BMP280;39568;51.026;5.468;2022-10-16T03:44:15;100327.72;;;12.67
53667;BMP280;39568;51.026;5.468;2022-10-16T03:46:47;100321.22;;;12.63
53667;BMP280;39568;51.026;5.468;2022-10-16T03:49:14;100326.28;;;12.66
53667;BMP280;39568;51.026;5.468;2022-10-16T03:51:40;100324.03;;;12.70
53667;BMP280;39568;51.026;5.468;2022-10-16T03:54:09;100325.06;;;12.67
53667;BMP280;39568;51.026;5.468;2022-10-16T03:56:36;100329.78;;;12.74
53667;BMP280;39568;51.026;5.468;2022-10-16T03:59:02;100326.28;;;12.66
53667;BMP280;39568;51.026;5.468;2022-10-16T04:01:29;100332.03;;;12.70
53667;BMP280;39568;51.026;5.468;2022-10-16T04:03:55;100340.34;;;12.67
53667;BMP280;39568;51.026;5.468;2022-10-16T04:06:22;100338.44;;;12.62
53667;BMP280;39568;51.026;5.468;2022-10-16T04:08:58;100337.84;;;12.69
53667;BMP280;39568;51.026;5.468;2022-10-16T04:11:26;100340.25;;;12.72
53667;BMP280;39568;51.026;5.468;2022-10-16T04:14:00;100347.25;;;12.76
53667;BMP280;39568;51.026;5.468;2022-10-16T04:16:27;100355.91;;;12.63
53667;BMP280;39568;51.026;5.468;2022-10-16T04:18:53;100354.19;;;12.65
53667;BMP280;39568;51.026;5.468;2022-10-16T04:21:21;100357.22;;;12.56
53667;BMP280;39568;51.026;5.468;2022-10-16T04:23:48;100358.66;;;12.57
53667;BMP280;39568;51.026;5.468;2022-10-16T04:26:15;100357.66;;;12.60
53667;BMP280;39568;51.026;5.468;2022-10-16T04:28:44;100355.91;;;12.63
53667;BMP280;39568;51.026;5.468;2022-10-16T04:31:17;100347.63;;;12.66
53667;BMP280;39568;51.026;5.468;2022-10-16T04:33:49;100358.00;;;12.70
53667;BMP280;39568;51.026;5.468;2022-10-16T04:36:16;100360.66;;;12.70
53667;BMP280;39568;51.026;5.468;2022-10-16T04:38:45;100368.91;;;12.72
53667;BMP280;39568;51.026;5.468;2022-10-16T04:41:12;100361.13;;;12.74
53667;BMP280;39568;51.026;5.468;2022-10-16T04:43:39;100367.66;;;12.73
53667;BMP280;39568;51.026;5.468;2022-10-16T04:46:07;100373.00;;;12.73
53667;BMP280;39568;51.026;5.468;2022-10-16T04:48:35;100361.81;;;12.74
53667;BMP280;39568;51.026;5.468;2022-10-16T04:51:02;100352.66;;;12.70
53667;BMP280;39568;51.026;5.468;2022-10-16T04:53:31;100356.78;;;12.71
53667;BMP280;39568;51.026;5.468;2022-10-16T04:55:58;100367.88;;;12.75
53667;BMP280;39568;51.026;5.468;2022-10-16T04:58:26;100371.19;;;12.81
53667;BMP280;39568;51.026;5.468;2022-10-16T05:00:56;100348.59;;;12.82
53667;BMP280;39568;51.026;5.468;2022-10-16T05:03:24;100370.41;;;12.86
53667;BMP280;39568;51.026;5.468;2022-10-16T05:05:51;100375.34;;;12.95
53667;BMP280;39568;51.026;5.468;2022-10-16T05:08:17;100381.16;;;12.99
53667;BMP280;39568;51.026;5.468;2022-10-16T05:10:44;100391.91;;;12.94
53667;BMP280;39568;51.026;5.468;2022-10-16T05:13:11;100391.38;;;12.95
53667;BMP280;39568;51.026;5.468;2022-10-16T05:15:42;100390.44;;;12.93
53667;BMP280;39568;51.026;5.468;2022-10-16T05:18:09;100387.19;;;12.81
53667;BMP280;39568;51.026;5.468;2022-10-16T05:20:41;100393.31;;;12.76
53667;BMP280;39568;51.026;5.468;2022-10-16T05:23:08;100396.66;;;12.82
53667;BMP280;39568;51.026;5.468;2022-10-16T05:25:35;100405.69;;;12.79
53667;BMP280;39568;51.026;5.468;2022-10-16T05:28:02;100405.88;;;12.81
53667;BMP280;39568;51.026;5.468;2022-10-16T05:30:29;100409.34;;;12.76
53667;BMP280;39568;51.026;5.468;2022-10-16T05:32:55;100410.81;;;12.77
53667;BMP280;39568;51.026;5.468;2022-10-16T05:35:22;100421.72;;;12.79
53667;BMP280;39568;51.026;5.468;2022-10-16T05:37:50;100429.50;;;12.77
53667;BMP280;39568;51.026;5.468;2022-10-16T05:40:18;100424.38;;;12.79
53667;BMP280;39568;51.026;5.468;2022-10-16T05:42:45;100430.69;;;12.76
53667;BMP280;39568;51.026;5.468;2022-10-16T05:45:12;100440.97;;;12.72
53667;BMP280;39568;51.026;5.468;2022-10-16T05:47:39;100447.44;;;12.77
53667;BMP280;39568;51.026;5.468;2022-10-16T05:50:08;100442.69;;;12.69
53667;BMP280;39568;51.026;5.468;2022-10-16T05:52:35;100451.88;;;12.74
53667;BMP280;39568;51.026;5.468;2022-10-16T05:55:06;100460.06;;;12.76
53667;BMP280;39568;51.026;5.468;2022-10-16T05:57:38;100453.31;;;12.75
53667;BMP280;39568;51.026;5.468;2022-10-16T06:00:05;100462.16;;;12.64
53667;BMP280;39568;51.026;5.468;2022-10-16T06:02:33;100466.78;;;12.64
53667;BMP280;39568;51.026;5.468;2022-10-16T06:05:00;100461.72;;;12.60
53667;BMP280;39568;51.026;5.468;2022-10-16T06:07:27;100469.53;;;12.58
53667;BMP280;39568;51.026;5.468;2022-10-16T06:09:54;100474.38;;;12.60
53667;BMP280;39568;51.026;5.468;2022-10-16T06:12:22;100465.50;;;12.52
53667;BMP280;39568;51.026;5.468;2022-10-16T06:14:49;100469.78;;;12.55
53667;BMP280;39568;51.026;5.468;2022-10-16T06:17:16;100467.84;;;12.55
53667;BMP280;39568;51.026;5.468;2022-10-16T06:19:42;100471.03;;;12.54
53667;BMP280;39568;51.026;5.468;2022-10-16T06:22:09;100491.38;;;12.57
53667;BMP280;39568;51.026;5.468;2022-10-16T06:24:36;100485.31;;;12.56
53667;BMP280;39568;51.026;5.468;2022-10-16T06:27:03;100493.38;;;12.51
53667;BMP280;39568;51.026;5.468;2022-10-16T06:29:31;100491.44;;;12.51
53667;BMP280;39568;51.026;5.468;2022-10-16T06:31:58;100500.41;;;12.54
53667;BMP280;39568;51.026;5.468;2022-10-16T06:34:25;100500.41;;;12.54
53667;BMP280;39568;51.026;5.468;2022-10-16T06:36:55;100503.75;;;12.54
53667;BMP280;39568;51.026;5.468;2022-10-16T06:39:22;100502.56;;;12.55
53667;BMP280;39568;51.026;5.468;2022-10-16T06:41:48;100504.94;;;12.59
53667;BMP280;39568;51.026;5.468;2022-10-16T06:44:15;100514.72;;;12.51
53667;BMP280;39568;51.026;5.468;2022-10-16T06:46:43;100513.16;;;12.61
53667;BMP280;39568;51.026;5.468;2022-10-16T06:49:10;100522.84;;;12.64
53667;BMP280;39568;51.026;5.468;2022-10-16T06:51:36;100524.56;;;12.61
53667;BMP280;39568;51.026;5.468;2022-10-16T06:54:06;100525.28;;;12.62
53667;BMP280;39568;51.026;5.468;2022-10-16T06:56:33;100521.97;;;12.56
53667;BMP280;39568;51.026;5.468;2022-10-16T06:59:01;100533.97;;;12.68
53667;BMP280;39568;51.026;5.468;2022-10-16T07:01:28;100529.56;;;12.70
53667;BMP280;39568;51.026;5.468;2022-10-16T07:03:56;100533.59;;;12.77
53667;BMP280;39568;51.026;5.468;2022-10-16T07:06:24;100543.72;;;12.84
53667;BMP280;39568;51.026;5.468;2022-10-16T07:08:52;100541.94;;;12.92
53667;BMP280;39568;51.026;5.468;2022-10-16T07:11:23;100546.00;;;12.99
53667;BMP280;39568;51.026;5.468;2022-10-16T07:13:53;100544.38;;;13.09
53667;BMP280;39568;51.026;5.468;2022-10-16T07:16:21;100556.09;;;13.24
53667;BMP280;39568;51.026;5.468;2022-10-16T07:18:48;100551.63;;;13.32
53667;BMP280;39568;51.026;5.468;2022-10-16T07:21:19;100553.91;;;13.42
53667;BMP280;39568;51.026;5.468;2022-10-16T07:23:50;100554.78;;;13.50
53667;BMP280;39568;51.026;5.468;2022-10-16T07:26:17;100568.19;;;13.63
53667;BMP280;39568;51.026;5.468;2022-10-16T07:28:44;100573.59;;;13.76
53667;BMP280;39568;51.026;5.468;2022-10-16T07:31:13;100585.94;;;13.79
53667;BMP280;39568;51.026;5.468;2022-10-16T07:33:42;100594.41;;;13.83
53667;BMP280;39568;51.026;5.468;2022-10-16T07:36:10;100595.22;;;13.91
53667;BMP280;39568;51.026;5.468;2022-10-16T07:38:39;100610.91;;;14.00
53667;BMP280;39568;51.026;5.468;2022-10-16T07:41:12;100601.47;;;14.12
53667;BMP280;39568;51.026;5.468;2022-10-16T07:43:45;100614.25;;;14.19
53667;BMP280;39568;51.026;5.468;2022-10-16T07:46:12;100626.59;;;14.22
53667;BMP280;39568;51.026;5.468;2022-10-16T07:48:39;100610.78;;;14.37
53667;BMP280;39568;51.026;5.468;2022-10-16T07:51:06;100621.69;;;14.39
53667;BMP280;39568;51.026;5.468;2022-10-16T07:53:33;100619.53;;;14.51
53667;BMP280;39568;51.026;5.468;2022-10-16T07:56:04;100627.88;;;14.60
53667;BMP280;39568;51.026;5.468;2022-10-16T07:58:32;100655.19;;;14.85
53667;BMP280;39568;51.026;5.468;2022-10-16T08:01:03;100639.50;;;15.02
53667;BMP280;39568;51.026;5.468;2022-10-16T08:03:29;100655.03;;;15.30
53667;BMP280;39568;51.026;5.468;2022-10-16T08:05:57;100645.72;;;15.44
53667;BMP280;39568;51.026;5.468;2022-10-16T08:08:27;100648.94;;;15.63
53667;BMP280;39568;51.026;5.468;2022-10-16T08:10:54;100663.81;;;16.05
53667;BMP280;39568;51.026;5.468;2022-10-16T08:13:22;100652.88;;;16.52
53667;BMP280;39568;51.026;5.468;2022-10-16T08:15:49;100661.47;;;16.51
53667;BMP280;39568;51.026;5.468;2022-10-16T08:18:16;100668.28;;;16.87
53667;BMP280;39568;51.026;5.468;2022-10-16T08:20:42;100671.53;;;16.86
53667;BMP280;39568;51.026;5.468;2022-10-16T08:23:10;100674.50;;;17.18
53667;BMP280;39568;51.026;5.468;2022-10-16T08:25:40;100674.41;;;17.54
53667;BMP280;39568;51.026;5.468;2022-10-16T08:28:10;100679.63;;;17.52
53667;BMP280;39568;51.026;5.468;2022-10-16T08:30:38;100690.19;;;17.50
53667;BMP280;39568;51.026;5.468;2022-10-16T08:33:05;100695.09;;;17.74
53667;BMP280;39568;51.026;5.468;2022-10-16T08:35:37;100696.53;;;17.98
53667;BMP280;39568;51.026;5.468;2022-10-16T08:38:04;100692.94;;;17.80
53667;BMP280;39568;51.026;5.468;2022-10-16T08:40:33;100693.31;;;18.14
53667;BMP280;39568;51.026;5.468;2022-10-16T08:43:11;100694.16;;;18.47
53667;BMP280;39568;51.026;5.468;2022-10-16T08:45:51;100705.38;;;18.83
53667;BMP280;39568;51.026;5.468;2022-10-16T08:48:25;100699.94;;;18.06
53667;BMP280;39568;51.026;5.468;2022-10-16T08:50:54;100697.44;;;18.23
53667;BMP280;39568;51.026;5.468;2022-10-16T08:53:24;100709.81;;;18.26
53667;BMP280;39568;51.026;5.468;2022-10-16T08:55:53;100708.88;;;17.63
53667;BMP280;39568;51.026;5.468;2022-10-16T08:58:21;100710.50;;;17.96
53667;BMP280;39568;51.026;5.468;2022-10-16T09:00:54;100714.28;;;18.01
53667;BMP280;39568;51.026;5.468;2022-10-16T09:03:32;100718.44;;;18.32
53667;BMP280;39568;51.026;5.468;2022-10-16T09:06:26;100709.69;;;18.86
53667;BMP280;39568;51.026;5.468;2022-10-16T09:09:07;100717.47;;;19.47
53667;BMP280;39568;51.026;5.468;2022-10-16T09:11:44;100718.94;;;19.48
53667;BMP280;39568;51.026;5.468;2022-10-16T09:14:33;100729.09;;;19.24
53667;BMP280;39568;51.026;5.468;2022-10-16T09:17:19;100719.06;;;19.17
53667;BMP280;39568;51.026;5.468;2022-10-16T09:19:51;100720.28;;;19.32
53667;BMP280;39568;51.026;5.468;2022-10-16T09:22:25;100736.13;;;19.84
53667;BMP280;39568;51.026;5.468;2022-10-16T09:24:59;100736.22;;;20.53
53667;BMP280;39568;51.026;5.468;2022-10-16T09:27:27;100740.97;;;20.28
53667;BMP280;39568;51.026;5.468;2022-10-16T09:29:53;100743.16;;;20.63
53667;BMP280;39568;51.026;5.468;2022-10-16T09:32:22;100730.47;;;19.41
53667;BMP280;39568;51.026;5.468;2022-10-16T09:34:51;100739.81;;;19.07
53667;BMP280;39568;51.026;5.468;2022-10-16T09:37:22;100731.81;;;19.57
53667;BMP280;39568;51.026;5.468;2022-10-16T09:39:51;100728.66;;;20.17
53667;BMP280;39568;51.026;5.468;2022-10-16T09:42:19;100727.88;;;20.24
53667;BMP280;39568;51.026;5.468;2022-10-16T09:44:48;100730.44;;;19.73
53667;BMP280;39568;51.026;5.468;2022-10-16T09:47:17;100739.25;;;19.49
53667;BMP280;39568;51.026;5.468;2022-10-16T09:49:54;100736.91;;;20.02
53667;BMP280;39568;51.026;5.468;2022-10-16T09:52:23;100745.44;;;20.33
53667;BMP280;39568;51.026;5.468;2022-10-16T09:54:51;100747.69;;;21.22
53667;BMP280;39568;51.026;5.468;2022-10-16T09:57:21;100745.97;;;20.99
53667;BMP280;39568;51.026;5.468;2022-10-16T09:59:50;100739.97;;;22.00
53667;BMP280;39568;51.026;5.468;2022-10-16T10:02:19;100733.56;;;20.96
53667;BMP280;39568;51.026;5.468;2022-10-16T10:04:51;100755.22;;;20.62
53667;BMP280;39568;51.026;5.468;2022-10-16T10:07:25;100740.50;;;20.73
53667;BMP280;39568;51.026;5.468;2022-10-16T10:09:53;100736.16;;;20.60
53667;BMP280;39568;51.026;5.468;2022-10-16T10:12:22;100743.28;;;20.65
53667;BMP280;39568;51.026;5.468;2022-10-16T10:14:51;100741.75;;;21.78
53667;BMP280;39568;51.026;5.468;2022-10-16T10:17:20;100744.75;;;21.82
53667;BMP280;39568;51.026;5.468;2022-10-16T10:19:49;100744.28;;;22.41
53667;BMP280;39568;51.026;5.468;2022-10-16T10:22:27;100743.16;;;22.35
53667;BMP280;39568;51.026;5.468;2022-10-16T10:25:12;100745.13;;;22.72
53667;BMP280;39568;51.026;5.468;2022-10-16T10:27:45;100750.13;;;23.26
53667;BMP280;39568;51.026;5.468;2022-10-16T10:30:18;100768.38;;;22.75
53667;BMP280;39568;51.026;5.468;2022-10-16T10:32:54;100759.56;;;21.72
53667;BMP280;39568;51.026;5.468;2022-10-16T10:35:39;100761.53;;;20.65
53667;BMP280;39568;51.026;5.468;2022-10-16T10:38:20;100777.38;;;21.39
53667;BMP280;39568;51.026;5.468;2022-10-16T10:40:54;100777.66;;;22.15
53667;BMP280;39568;51.026;5.468;2022-10-16T10:43:35;100755.41;;;21.08
53667;BMP280;39568;51.026;5.468;2022-10-16T10:46:05;100776.03;;;21.04
53667;BMP280;39568;51.026;5.468;2022-10-16T10:49:02;100775.06;;;21.26
53667;BMP280;39568;51.026;5.468;2022-10-16T10:51:37;100778.81;;;22.12
53667;BMP280;39568;51.026;5.468;2022-10-16T10:54:13;100768.13;;;21.78
53667;BMP280;39568;51.026;5.468;2022-10-16T10:56:48;100776.38;;;21.34
53667;BMP280;39568;51.026;5.468;2022-10-16T10:59:40;100758.09;;;22.74
53667;BMP280;39568;51.026;5.468;2022-10-16T11:02:14;100776.34;;;23.42
53667;BMP280;39568;51.026;5.468;2022-10-16T11:04:53;100765.22;;;22.98
53667;BMP280;39568;51.026;5.468;2022-10-16T11:07:25;100767.81;;;22.48
53667;BMP280;39568;51.026;5.468;2022-10-16T11:09:58;100774.13;;;21.86
53667;BMP280;39568;51.026;5.468;2022-10-16T11:12:29;100752.84;;;21.10
53667;BMP280;39568;51.026;5.468;2022-10-16T11:15:02;100773.84;;;20.75
53667;BMP280;39568;51.026;5.468;2022-10-16T11:17:31;100772.09;;;21.67
53667;BMP280;39568;51.026;5.468;2022-10-16T11:20:04;100773.25;;;21.74
53667;BMP280;39568;51.026;5.468;2022-10-16T11:22:43;100780.69;;;22.67
53667;BMP280;39568;51.026;5.468;2022-10-16T11:25:16;100768.94;;;22.17
53667;BMP280;39568;51.026;5.468;2022-10-16T11:27:51;100777.69;;;21.43
53667;BMP280;39568;51.026;5.468;2022-10-16T11:30:24;100773.09;;;21.36
53667;BMP280;39568;51.026;5.468;2022-10-16T11:33:02;100771.06;;;21.27
53667;BMP280;39568;51.026;5.468;2022-10-16T11:35:39;100770.63;;;21.04
53667;BMP280;39568;51.026;5.468;2022-10-16T11:38:14;100763.81;;;20.51
53667;BMP280;39568;51.026;5.468;2022-10-16T11:40:48;100774.13;;;20.28
53667;BMP280;39568;51.026;5.468;2022-10-16T11:43:22;100773.59;;;20.30
53667;BMP280;39568;51.026;5.468;2022-10-16T11:45:53;100784.75;;;20.68
53667;BMP280;39568;51.026;5.468;2022-10-16T11:48:27;100761.13;;;20.51
53667;BMP280;39568;51.026;5.468;2022-10-16T11:50:59;100764.13;;;20.38
53667;BMP280;39568;51.026;5.468;2022-10-16T11:53:45;100765.75;;;20.17
53667;BMP280;39568;51.026;5.468;2022-10-16T11:56:17;100770.09;;;20.37
53667;BMP280;39568;51.026;5.468;2022-10-16T11:58:53;100773.00;;;21.17
53667;BMP280;39568;51.026;5.468;2022-10-16T12:01:28;100777.09;;;21.35
53667;BMP280;39568;51.026;5.468;2022-10-16T12:04:04;100779.53;;;21.14
53667;BMP280;39568;51.026;5.468;2022-10-16T12:06:36;100769.97;;;22.40
53667;BMP280;39568;51.026;5.468;2022-10-16T12:09:05;100766.69;;;22.51
53667;BMP280;39568;51.026;5.468;2022-10-16T12:11:35;100773.00;;;21.79
53667;BMP280;39568;51.026;5.468;2022-10-16T12:17:00;100768.47;;;21.02
53667;BMP280;39568;51.026;5.468;2022-10-16T12:19:29;100763.97;;;20.87
53667;BMP280;39568;51.026;5.468;2022-10-16T12:21:57;100774.78;;;20.53
53667;BMP280;39568;51.026;5.468;2022-10-16T12:24:34;100778.19;;;21.05
53667;BMP280;39568;51.026;5.468;2022-10-16T12:27:05;100793.94;;;20.99
53667;BMP280;39568;51.026;5.468;2022-10-16T12:29:36;100790.38;;;20.62
53667;BMP280;39568;51.026;5.468;2022-10-16T12:32:05;100783.38;;;20.59
53667;BMP280;39568;51.026;5.468;2022-10-16T12:34:39;100785.59;;;21.05
53667;BMP280;39568;51.026;5.468;2022-10-16T12:37:11;100782.50;;;20.91
53667;BMP280;39568;51.026;5.468;2022-10-16T12:39:39;100779.81;;;20.40
53667;BMP280;39568;51.026;5.468;2022-10-16T12:42:21;100776.56;;;19.92
53667;BMP280;39568;51.026;5.468;2022-10-16T12:44:49;100776.78;;;20.53
53667;BMP280;39568;51.026;5.468;2022-10-16T12:47:22;100775.34;;;21.56
53667;BMP280;39568;51.026;5.468;2022-10-16T12:49:51;100773.22;;;22.01
53667;BMP280;39568;51.026;5.468;2022-10-16T12:52:27;100768.38;;;22.09
53667;BMP280;39568;51.026;5.468;2022-10-16T12:54:56;100773.41;;;22.31
53667;BMP280;39568;51.026;5.468;2022-10-16T12:57:35;100764.53;;;21.30
53667;BMP280;39568;51.026;5.468;2022-10-16T13:00:12;100761.81;;;20.86
53667;BMP280;39568;51.026;5.468;2022-10-16T13:02:53;100758.13;;;21.08
53667;BMP280;39568;51.026;5.468;2022-10-16T13:05:34;100770.13;;;21.15
53667;BMP280;39568;51.026;5.468;2022-10-16T13:08:19;100780.84;;;21.22
53667;BMP280;39568;51.026;5.468;2022-10-16T13:10:58;100784.06;;;20.94
53667;BMP280;39568;51.026;5.468;2022-10-16T13:13:58;100780.56;;;21.01
53667;BMP280;39568;51.026;5.468;2022-10-16T13:16:35;100770.47;;;20.33
53667;BMP280;39568;51.026;5.468;2022-10-16T13:19:17;100772.22;;;20.21
53667;BMP280;39568;51.026;5.468;2022-10-16T13:21:50;100781.56;;;20.20
53667;BMP280;39568;51.026;5.468;2022-10-16T13:24:39;100780.13;;;20.02
53667;BMP280;39568;51.026;5.468;2022-10-16T13:27:14;100777.56;;;20.46
53667;BMP280;39568;51.026;5.468;2022-10-16T13:29:52;100777.47;;;20.36
53667;BMP280;39568;51.026;5.468;2022-10-16T13:32:21;100784.31;;;20.37
53667;BMP280;39568;51.026;5.468;2022-10-16T13:34:50;100799.38;;;20.06
53667;BMP280;39568;51.026;5.468;2022-10-16T13:37:19;100800.72;;;19.90
53667;BMP280;39568;51.026;5.468;2022-10-16T13:39:47;100808.66;;;19.88
53667;BMP280;39568;51.026;5.468;2022-10-16T13:42:23;100793.31;;;20.15
53667;BMP280;39568;51.026;5.468;2022-10-16T13:44:54;100792.59;;;20.39
53667;BMP280;39568;51.026;5.468;2022-10-16T13:47:22;100797.06;;;20.44
53667;BMP280;39568;51.026;5.468;2022-10-16T13:49:59;100791.00;;;20.53
53667;BMP280;39568;51.026;5.468;2022-10-16T13:52:27;100792.59;;;20.39
53667;BMP280;39568;51.026;5.468;2022-10-16T13:54:54;100804.78;;;20.06
53667;BMP280;39568;51.026;5.468;2022-10-16T13:57:22;100803.06;;;19.93
53667;BMP280;39568;51.026;5.468;2022-10-16T13:59:49;100803.22;;;19.56
53667;BMP280;39568;51.026;5.468;2022-10-16T14:02:22;100802.91;;;19.59
53667;BMP280;39568;51.026;5.468;2022-10-16T14:04:55;100801.75;;;19.70
53667;BMP280;39568;51.026;5.468;2022-10-16T14:07:26;100794.97;;;19.86
53667;BMP280;39568;51.026;5.468;2022-10-16T14:09:54;100794.09;;;20.08
53667;BMP280;39568;51.026;5.468;2022-10-16T14:12:22;100785.09;;;20.30
53667;BMP280;39568;51.026;5.468;2022-10-16T14:14:51;100795.94;;;20.47
53667;BMP280;39568;51.026;5.468;2022-10-16T14:17:22;100792.91;;;20.43
53667;BMP280;39568;51.026;5.468;2022-10-16T14:19:53;100787.97;;;20.49